sensor_id;sensor_type;location;lat;lon;timestamp;temperature;humidity
17208;DHT22;8720;48.488;9.202;2023-04-08T00:01:22;10.90;53.40
17208;DHT22;8720;48.488;9.202;2023-04-08T00:03:49;10.90;53.20
17208;DHT22;8720;48.488;9.202;2023-04-08T00:06:16;10.90;53.20
17208;DHT22;8720;48.488;9.202;2023-04-08T00:08:43;10.90;53.30
17208;DHT22;8720;48.488;9.202;2023-04-08T00:11:11;10.90;53.40
17208;DHT22;8720;48.488;9.202;2023-04-08T00:13:38;10.90;53.50
17208;DHT22;8720;48.488;9.202;2023-04-08T00:16:07;10.80;53.50
17208;DHT22;8720;48.488;9.202;2023-04-08T00:18:34;10.80;53.80
17208;DHT22;8720;48.488;9.202;2023-04-08T00:21:03;10.80;53.70
17208;DHT22;8720;48.488;9.202;2023-04-08T00:23:30;10.80;53.80
17208;DHT22;8720;48.488;9.202;2023-04-08T00:25:57;10.80;53.90
17208;DHT22;8720;48.488;9.202;2023-04-08T00:28:25;10.80;54.00
17208;DHT22;8720;48.488;9.202;2023-04-08T00:30:53;10.80;54.00
17208;DHT22;8720;48.488;9.202;2023-04-08T00:33:22;10.80;54.10
17208;DHT22;8720;48.488;9.202;2023-04-08T00:35:50;10.90;54.40
17208;DHT22;8720;48.488;9.202;2023-04-08T00:38:17;10.90;54.00
17208;DHT22;8720;48.488;9.202;2023-04-08T00:40:45;10.90;54.50
17208;DHT22;8720;48.488;9.202;2023-04-08T00:43:12;10.90;53.90
17208;DHT22;8720;48.488;9.202;2023-04-08T00:45:41;10.90;53.90
17208;DHT22;8720;48.488;9.202;2023-04-08T00:48:08;10.90;53.90
17208;DHT22;8720;48.488;9.202;2023-04-08T00:50:37;10.90;54.10
17208;DHT22;8720;48.488;9.202;2023-04-08T00:53:04;10.90;55.00
17208;DHT22;8720;48.488;9.202;2023-04-08T00:55:31;10.90;55.00
17208;DHT22;8720;48.488;9.202;2023-04-08T00:57:59;10.90;54.30
17208;DHT22;8720;48.488;9.202;2023-04-08T01:00:28;10.90;54.30
17208;DHT22;8720;48.488;9.202;2023-04-08T01:03:04;10.90;54.40
17208;DHT22;8720;48.488;9.202;2023-04-08T01:05:48;10.90;54.70
17208;DHT22;8720;48.488;9.202;2023-04-08T01:08:25;10.90;54.90
17208;DHT22;8720;48.488;9.202;2023-04-08T01:11:00;10.90;54.50
17208;DHT22;8720;48.488;9.202;2023-04-08T01:13:33;10.90;54.50
17208;DHT22;8720;48.488;9.202;2023-04-08T01:16:07;10.90;54.50
17208;DHT22;8720;48.488;9.202;2023-04-08T01:18:37;10.90;54.30
17208;DHT22;8720;48.488;9.202;2023-04-08T01:21:09;10.90;54.30
17208;DHT22;8720;48.488;9.202;2023-04-08T01:23:51;10.90;54.50
17208;DHT22;8720;48.488;9.202;2023-04-08T01:26:25;10.90;54.70
17208;DHT22;8720;48.488;9.202;2023-04-08T01:28:55;10.90;54.50
17208;DHT22;8720;48.488;9.202;2023-04-08T01:31:26;10.90;54.50
17208;DHT22;8720;48.488;9.202;2023-04-08T01:33:54;10.90;54.40
17208;DHT22;8720;48.488;9.202;2023-04-08T01:36:25;10.90;54.40
17208;DHT22;8720;48.488;9.202;2023-04-08T01:38:52;10.90;54.50
17208;DHT22;8720;48.488;9.202;2023-04-08T01:41:20;10.90;54.30
17208;DHT22;8720;48.488;9.202;2023-04-08T01:43:52;10.90;54.40
17208;DHT22;8720;48.488;9.202;2023-04-08T01:46:21;10.90;54.60
17208;DHT22;8720;48.488;9.202;2023-04-08T01:48:49;10.80;54.40
17208;DHT22;8720;48.488;9.202;2023-04-08T01:51:19;10.80;54.50
17208;DHT22;8720;48.488;9.202;2023-04-08T01:53:47;10.80;54.80
17208;DHT22;8720;48.488;9.202;2023-04-08T01:56:14;10.80;54.70
17208;DHT22;8720;48.488;9.202;2023-04-08T01:58:46;10.80;54.90
17208;DHT22;8720;48.488;9.202;2023-04-08T02:03:47;10.80;54.80
17208;DHT22;8720;48.488;9.202;2023-04-08T02:06:17;10.80;55.10
17208;DHT22;8720;48.488;9.202;2023-04-08T02:08:44;10.80;54.90
17208;DHT22;8720;48.488;9.202;2023-04-08T02:11:12;10.80;55.00
17208;DHT22;8720;48.488;9.202;2023-04-08T02:13:39;10.80;55.00
17208;DHT22;8720;48.488;9.202;2023-04-08T02:16:13;10.80;55.00
17208;DHT22;8720;48.488;9.202;2023-04-08T02:18:52;10.90;55.50
17208;DHT22;8720;48.488;9.202;2023-04-08T02:21:26;10.80;55.40
17208;DHT22;8720;48.488;9.202;2023-04-08T02:24:04;10.80;55.30
17208;DHT22;8720;48.488;9.202;2023-04-08T02:26:35;10.80;55.30
17208;DHT22;8720;48.488;9.202;2023-04-08T02:29:05;10.80;55.20
17208;DHT22;8720;48.488;9.202;2023-04-08T02:31:40;10.80;55.00
17208;DHT22;8720;48.488;9.202;2023-04-08T02:34:10;10.80;55.20
17208;DHT22;8720;48.488;9.202;2023-04-08T02:36:38;10.80;55.80
17208;DHT22;8720;48.488;9.202;2023-04-08T02:39:07;10.80;55.00
17208;DHT22;8720;48.488;9.202;2023-04-08T02:41:34;10.80;55.00
17208;DHT22;8720;48.488;9.202;2023-04-08T02:44:02;10.80;55.00
17208;DHT22;8720;48.488;9.202;2023-04-08T02:46:29;10.80;55.10
17208;DHT22;8720;48.488;9.202;2023-04-08T02:48:56;10.70;55.00
17208;DHT22;8720;48.488;9.202;2023-04-08T02:51:25;10.70;55.10
17208;DHT22;8720;48.488;9.202;2023-04-08T02:53:52;10.70;55.10
17208;DHT22;8720;48.488;9.202;2023-04-08T02:56:20;10.70;55.00
17208;DHT22;8720;48.488;9.202;2023-04-08T02:58:47;10.70;55.00
17208;DHT22;8720;48.488;9.202;2023-04-08T03:01:16;10.70;55.10
17208;DHT22;8720;48.488;9.202;2023-04-08T03:03:43;10.70;55.10
17208;DHT22;8720;48.488;9.202;2023-04-08T03:06:11;10.70;55.10
17208;DHT22;8720;48.488;9.202;2023-04-08T03:08:39;10.60;55.00
17208;DHT22;8720;48.488;9.202;2023-04-08T03:11:07;10.60;55.20
17208;DHT22;8720;48.488;9.202;2023-04-08T03:13:34;10.60;55.10
17208;DHT22;8720;48.488;9.202;2023-04-08T03:16:01;10.60;55.10
17208;DHT22;8720;48.488;9.202;2023-04-08T03:18:28;10.60;55.20
17208;DHT22;8720;48.488;9.202;2023-04-08T03:20:56;10.60;55.20
17208;DHT22;8720;48.488;9.202;2023-04-08T03:23:23;10.60;55.10
17208;DHT22;8720;48.488;9.202;2023-04-08T03:25:52;10.60;55.00
17208;DHT22;8720;48.488;9.202;2023-04-08T03:28:19;10.60;55.10
17208;DHT22;8720;48.488;9.202;2023-04-08T03:30:46;10.60;55.00
17208;DHT22;8720;48.488;9.202;2023-04-08T03:33:13;10.60;55.10
17208;DHT22;8720;48.488;9.202;2023-04-08T03:35:41;10.60;55.00
17208;DHT22;8720;48.488;9.202;2023-04-08T03:38:08;10.60;55.10
17208;DHT22;8720;48.488;9.202;2023-04-08T03:40:35;10.60;55.00
17208;DHT22;8720;48.488;9.202;2023-04-08T03:43:04;10.60;55.00
17208;DHT22;8720;48.488;9.202;2023-04-08T03:45:33;10.60;55.20
17208;DHT22;8720;48.488;9.202;2023-04-08T03:48:00;10.60;55.10
17208;DHT22;8720;48.488;9.202;2023-04-08T03:50:28;10.70;55.00
17208;DHT22;8720;48.488;9.202;2023-04-08T03:52:55;10.60;54.80
17208;DHT22;8720;48.488;9.202;2023-04-08T03:55:22;10.70;54.90
17208;DHT22;8720;48.488;9.202;2023-04-08T03:57:49;10.60;55.30
17208;DHT22;8720;48.488;9.202;2023-04-08T04:00:18;10.70;54.70
17208;DHT22;8720;48.488;9.202;2023-04-08T04:02:45;10.70;54.70
17208;DHT22;8720;48.488;9.202;2023-04-08T04:05:13;10.60;54.40
17208;DHT22;8720;48.488;9.202;2023-04-08T04:07:40;10.60;54.30
17208;DHT22;8720;48.488;9.202;2023-04-08T04:10:08;10.60;54.20
17208;DHT22;8720;48.488;9.202;2023-04-08T04:12:36;10.60;54.20
17208;DHT22;8720;48.488;9.202;2023-04-08T04:15:04;10.60;54.00
17208;DHT22;8720;48.488;9.202;2023-04-08T04:17:33;10.60;54.00
17208;DHT22;8720;48.488;9.202;2023-04-08T04:20:03;10.60;54.20
17208;DHT22;8720;48.488;9.202;2023-04-08T04:22:31;10.60;54.30
17208;DHT22;8720;48.488;9.202;2023-04-08T04:24:58;10.60;54.20
17208;DHT22;8720;48.488;9.202;2023-04-08T04:27:25;10.50;53.90
17208;DHT22;8720;48.488;9.202;2023-04-08T04:29:52;10.50;53.90
17208;DHT22;8720;48.488;9.202;2023-04-08T04:32:19;10.50;54.00
17208;DHT22;8720;48.488;9.202;2023-04-08T04:34:48;10.40;54.10
17208;DHT22;8720;48.488;9.202;2023-04-08T04:37:15;10.40;54.30
17208;DHT22;8720;48.488;9.202;2023-04-08T04:39:43;10.40;54.30
17208;DHT22;8720;48.488;9.202;2023-04-08T04:42:10;10.40;54.40
17208;DHT22;8720;48.488;9.202;2023-04-08T04:44:37;10.40;54.60
17208;DHT22;8720;48.488;9.202;2023-04-08T04:47:04;10.30;54.70
17208;DHT22;8720;48.488;9.202;2023-04-08T04:49:32;10.30;54.80
17208;DHT22;8720;48.488;9.202;2023-04-08T04:52:00;10.30;55.00
17208;DHT22;8720;48.488;9.202;2023-04-08T04:54:27;10.30;55.20
17208;DHT22;8720;48.488;9.202;2023-04-08T04:56:55;10.30;55.10
17208;DHT22;8720;48.488;9.202;2023-04-08T04:59:22;10.30;55.20
17208;DHT22;8720;48.488;9.202;2023-04-08T05:01:49;10.30;55.20
17208;DHT22;8720;48.488;9.202;2023-04-08T05:04:16;10.20;55.20
17208;DHT22;8720;48.488;9.202;2023-04-08T05:06:44;10.20;55.20
17208;DHT22;8720;48.488;9.202;2023-04-08T05:09:12;10.20;55.30
17208;DHT22;8720;48.488;9.202;2023-04-08T05:11:40;10.20;55.40
17208;DHT22;8720;48.488;9.202;2023-04-08T05:14:07;10.20;55.40
17208;DHT22;8720;48.488;9.202;2023-04-08T05:16:34;10.20;55.40
17208;DHT22;8720;48.488;9.202;2023-04-08T05:19:03;10.20;55.40
17208;DHT22;8720;48.488;9.202;2023-04-08T05:21:30;10.20;55.40
17208;DHT22;8720;48.488;9.202;2023-04-08T05:23:57;10.20;55.40
17208;DHT22;8720;48.488;9.202;2023-04-08T05:26:26;10.20;55.50
17208;DHT22;8720;48.488;9.202;2023-04-08T05:28:53;10.20;55.70
17208;DHT22;8720;48.488;9.202;2023-04-08T05:31:20;10.20;55.60
17208;DHT22;8720;48.488;9.202;2023-04-08T05:33:48;10.20;55.70
17208;DHT22;8720;48.488;9.202;2023-04-08T05:36:15;10.20;55.80
17208;DHT22;8720;48.488;9.202;2023-04-08T05:38:42;10.30;55.90
17208;DHT22;8720;48.488;9.202;2023-04-08T05:41:09;10.30;55.90
17208;DHT22;8720;48.488;9.202;2023-04-08T05:43:38;10.30;55.90
17208;DHT22;8720;48.488;9.202;2023-04-08T05:46:06;10.30;56.10
17208;DHT22;8720;48.488;9.202;2023-04-08T05:48:33;10.30;56.10
17208;DHT22;8720;48.488;9.202;2023-04-08T05:51:01;10.40;56.30
17208;DHT22;8720;48.488;9.202;2023-04-08T05:53:28;10.40;56.20
17208;DHT22;8720;48.488;9.202;2023-04-08T05:55:56;10.40;56.10
17208;DHT22;8720;48.488;9.202;2023-04-08T05:58:23;10.50;56.10
17208;DHT22;8720;48.488;9.202;2023-04-08T06:00:52;10.50;56.10
17208;DHT22;8720;48.488;9.202;2023-04-08T06:03:20;10.50;56.00
17208;DHT22;8720;48.488;9.202;2023-04-08T06:05:47;10.60;56.00
17208;DHT22;8720;48.488;9.202;2023-04-08T06:08:14;10.60;56.00
17208;DHT22;8720;48.488;9.202;2023-04-08T06:10:48;10.60;55.90
17208;DHT22;8720;48.488;9.202;2023-04-08T06:13:15;10.70;56.50
17208;DHT22;8720;48.488;9.202;2023-04-08T06:15:44;10.70;55.90
17208;DHT22;8720;48.488;9.202;2023-04-08T06:18:14;10.80;55.90
17208;DHT22;8720;48.488;9.202;2023-04-08T06:20:42;10.80;55.80
17208;DHT22;8720;48.488;9.202;2023-04-08T06:23:09;10.90;55.80
17208;DHT22;8720;48.488;9.202;2023-04-08T06:25:37;10.90;55.60
17208;DHT22;8720;48.488;9.202;2023-04-08T06:28:04;11.00;56.20
17208;DHT22;8720;48.488;9.202;2023-04-08T06:30:31;11.00;55.50
17208;DHT22;8720;48.488;9.202;2023-04-08T06:32:58;11.00;55.30
17208;DHT22;8720;48.488;9.202;2023-04-08T06:35:27;11.00;55.10
17208;DHT22;8720;48.488;9.202;2023-04-08T06:37:54;11.10;55.10
17208;DHT22;8720;48.488;9.202;2023-04-08T06:40:21;11.10;55.10
17208;DHT22;8720;48.488;9.202;2023-04-08T06:42:49;11.10;55.00
17208;DHT22;8720;48.488;9.202;2023-04-08T06:45:38;11.10;54.90
17208;DHT22;8720;48.488;9.202;2023-04-08T06:48:07;11.10;54.70
17208;DHT22;8720;48.488;9.202;2023-04-08T06:50:36;11.20;54.60
17208;DHT22;8720;48.488;9.202;2023-04-08T06:53:03;11.20;54.50
17208;DHT22;8720;48.488;9.202;2023-04-08T06:55:30;11.20;55.20
17208;DHT22;8720;48.488;9.202;2023-04-08T06:57:57;11.20;54.40
17208;DHT22;8720;48.488;9.202;2023-04-08T07:00:26;11.30;54.40
17208;DHT22;8720;48.488;9.202;2023-04-08T07:02:53;11.30;54.20
17208;DHT22;8720;48.488;9.202;2023-04-08T07:05:21;11.30;54.00
17208;DHT22;8720;48.488;9.202;2023-04-08T07:07:50;11.30;53.80
17208;DHT22;8720;48.488;9.202;2023-04-08T07:10:17;11.30;53.80
17208;DHT22;8720;48.488;9.202;2023-04-08T07:12:44;11.30;53.60
17208;DHT22;8720;48.488;9.202;2023-04-08T07:15:11;11.30;53.50
17208;DHT22;8720;48.488;9.202;2023-04-08T07:17:39;11.30;53.60
17208;DHT22;8720;48.488;9.202;2023-04-08T07:20:07;11.30;53.50
17208;DHT22;8720;48.488;9.202;2023-04-08T07:22:35;11.30;53.40
17208;DHT22;8720;48.488;9.202;2023-04-08T07:25:04;11.20;53.40
17208;DHT22;8720;48.488;9.202;2023-04-08T07:27:33;11.30;53.40
17208;DHT22;8720;48.488;9.202;2023-04-08T07:30:00;11.20;53.80
17208;DHT22;8720;48.488;9.202;2023-04-08T07:32:28;11.20;53.30
17208;DHT22;8720;48.488;9.202;2023-04-08T07:34:55;11.20;53.30
17208;DHT22;8720;48.488;9.202;2023-04-08T07:37:22;11.20;53.30
17208;DHT22;8720;48.488;9.202;2023-04-08T07:39:50;11.10;53.30
17208;DHT22;8720;48.488;9.202;2023-04-08T07:42:19;11.10;53.40
17208;DHT22;8720;48.488;9.202;2023-04-08T07:44:46;11.10;53.50
17208;DHT22;8720;48.488;9.202;2023-04-08T07:47:14;11.10;53.40
17208;DHT22;8720;48.488;9.202;2023-04-08T07:49:41;10.90;54.10
17208;DHT22;8720;48.488;9.202;2023-04-08T07:52:09;10.90;53.90
17208;DHT22;8720;48.488;9.202;2023-04-08T07:54:36;11.00;53.70
17208;DHT22;8720;48.488;9.202;2023-04-08T07:57:03;11.00;53.60
17208;DHT22;8720;48.488;9.202;2023-04-08T07:59:32;11.00;53.50
17208;DHT22;8720;48.488;9.202;2023-04-08T08:01:59;11.00;53.20
17208;DHT22;8720;48.488;9.202;2023-04-08T08:04:27;11.00;53.80
17208;DHT22;8720;48.488;9.202;2023-04-08T08:06:54;11.00;53.20
17208;DHT22;8720;48.488;9.202;2023-04-08T08:09:21;11.00;53.10
17208;DHT22;8720;48.488;9.202;2023-04-08T08:11:48;11.00;53.10
17208;DHT22;8720;48.488;9.202;2023-04-08T08:14:16;11.00;53.10
17208;DHT22;8720;48.488;9.202;2023-04-08T08:16:44;11.00;53.20
17208;DHT22;8720;48.488;9.202;2023-04-08T08:19:12;11.00;53.20
17208;DHT22;8720;48.488;9.202;2023-04-08T08:21:39;11.00;53.20
17208;DHT22;8720;48.488;9.202;2023-04-08T08:24:06;11.10;53.40
17208;DHT22;8720;48.488;9.202;2023-04-08T08:26:34;11.20;53.60
17208;DHT22;8720;48.488;9.202;2023-04-08T08:29:02;11.20;53.50
17208;DHT22;8720;48.488;9.202;2023-04-08T08:31:33;11.40;53.40
17208;DHT22;8720;48.488;9.202;2023-04-08T08:34:01;11.40;53.20
17208;DHT22;8720;48.488;9.202;2023-04-08T08:36:29;11.50;53.20
17208;DHT22;8720;48.488;9.202;2023-04-08T08:38:56;11.60;53.00
17208;DHT22;8720;48.488;9.202;2023-04-08T08:41:23;11.70;52.60
17208;DHT22;8720;48.488;9.202;2023-04-08T08:43:50;11.80;52.40
17208;DHT22;8720;48.488;9.202;2023-04-08T08:46:20;11.80;52.20
17208;DHT22;8720;48.488;9.202;2023-04-08T08:48:47;11.80;52.30
17208;DHT22;8720;48.488;9.202;2023-04-08T08:51:16;11.80;52.10
17208;DHT22;8720;48.488;9.202;2023-04-08T08:53:43;11.90;52.00
17208;DHT22;8720;48.488;9.202;2023-04-08T08:56:11;11.80;51.70
17208;DHT22;8720;48.488;9.202;2023-04-08T08:58:38;11.90;51.70
17208;DHT22;8720;48.488;9.202;2023-04-08T09:01:30;11.90;51.80
17208;DHT22;8720;48.488;9.202;2023-04-08T09:04:17;11.90;51.60
17208;DHT22;8720;48.488;9.202;2023-04-08T09:06:48;11.90;51.60
17208;DHT22;8720;48.488;9.202;2023-04-08T09:09:17;12.00;51.80
17208;DHT22;8720;48.488;9.202;2023-04-08T09:11:45;12.00;51.80
17208;DHT22;8720;48.488;9.202;2023-04-08T09:14:20;12.10;51.70
17208;DHT22;8720;48.488;9.202;2023-04-08T09:16:48;12.20;51.70
17208;DHT22;8720;48.488;9.202;2023-04-08T09:19:15;12.20;51.70
17208;DHT22;8720;48.488;9.202;2023-04-08T09:21:43;12.30;51.60
17208;DHT22;8720;48.488;9.202;2023-04-08T09:24:27;12.30;51.20
17208;DHT22;8720;48.488;9.202;2023-04-08T09:26:56;12.30;50.80
17208;DHT22;8720;48.488;9.202;2023-04-08T09:29:24;12.40;51.20
17208;DHT22;8720;48.488;9.202;2023-04-08T09:31:58;12.40;51.00
17208;DHT22;8720;48.488;9.202;2023-04-08T09:34:27;12.50;50.60
17208;DHT22;8720;48.488;9.202;2023-04-08T09:36:57;12.50;50.40
17208;DHT22;8720;48.488;9.202;2023-04-08T09:39:25;12.50;50.20
17208;DHT22;8720;48.488;9.202;2023-04-08T09:41:56;12.50;50.20
17208;DHT22;8720;48.488;9.202;2023-04-08T09:44:27;12.60;50.20
17208;DHT22;8720;48.488;9.202;2023-04-08T09:47:00;12.70;50.20
17208;DHT22;8720;48.488;9.202;2023-04-08T09:49:39;12.80;50.10
17208;DHT22;8720;48.488;9.202;2023-04-08T09:52:15;12.90;49.90
17208;DHT22;8720;48.488;9.202;2023-04-08T09:55:02;13.00;49.90
17208;DHT22;8720;48.488;9.202;2023-04-08T09:57:45;13.10;50.00
17208;DHT22;8720;48.488;9.202;2023-04-08T10:00:18;13.20;49.50
17208;DHT22;8720;48.488;9.202;2023-04-08T10:02:55;13.40;50.00
17208;DHT22;8720;48.488;9.202;2023-04-08T10:05:30;13.50;49.50
17208;DHT22;8720;48.488;9.202;2023-04-08T10:07:59;13.70;49.30
17208;DHT22;8720;48.488;9.202;2023-04-08T10:10:28;13.80;48.80
17208;DHT22;8720;48.488;9.202;2023-04-08T10:12:55;14.00;48.50
17208;DHT22;8720;48.488;9.202;2023-04-08T10:15:25;14.10;48.40
17208;DHT22;8720;48.488;9.202;2023-04-08T10:17:55;14.20;47.90
17208;DHT22;8720;48.488;9.202;2023-04-08T10:20:44;14.40;48.10
17208;DHT22;8720;48.488;9.202;2023-04-08T10:23:13;14.40;47.20
17208;DHT22;8720;48.488;9.202;2023-04-08T10:25:43;14.50;46.60
17208;DHT22;8720;48.488;9.202;2023-04-08T10:28:24;14.50;46.00
17208;DHT22;8720;48.488;9.202;2023-04-08T10:30:53;14.60;45.10
17208;DHT22;8720;48.488;9.202;2023-04-08T10:33:23;14.70;45.70
17208;DHT22;8720;48.488;9.202;2023-04-08T10:36:00;14.80;45.70
17208;DHT22;8720;48.488;9.202;2023-04-08T10:38:35;14.90;45.40
17208;DHT22;8720;48.488;9.202;2023-04-08T10:41:04;15.00;45.10
17208;DHT22;8720;48.488;9.202;2023-04-08T10:43:32;15.00;44.90
17208;DHT22;8720;48.488;9.202;2023-04-08T10:46:01;15.10;43.60
17208;DHT22;8720;48.488;9.202;2023-04-08T10:48:31;15.10;43.40
17208;DHT22;8720;48.488;9.202;2023-04-08T10:50:59;15.10;43.10
17208;DHT22;8720;48.488;9.202;2023-04-08T10:53:29;15.10;42.90
17208;DHT22;8720;48.488;9.202;2023-04-08T10:56:06;15.10;42.70
17208;DHT22;8720;48.488;9.202;2023-04-08T10:58:47;15.20;42.10
17208;DHT22;8720;48.488;9.202;2023-04-08T11:01:15;15.20;42.10
17208;DHT22;8720;48.488;9.202;2023-04-08T11:03:42;15.30;42.90
17208;DHT22;8720;48.488;9.202;2023-04-08T11:06:10;15.30;42.60
17208;DHT22;8720;48.488;9.202;2023-04-08T11:08:38;15.40;42.70
17208;DHT22;8720;48.488;9.202;2023-04-08T11:11:06;15.40;42.40
17208;DHT22;8720;48.488;9.202;2023-04-08T11:13:37;15.40;42.20
17208;DHT22;8720;48.488;9.202;2023-04-08T11:16:07;15.30;42.20
17208;DHT22;8720;48.488;9.202;2023-04-08T11:18:37;15.40;42.20
17208;DHT22;8720;48.488;9.202;2023-04-08T11:21:08;15.30;41.60
17208;DHT22;8720;48.488;9.202;2023-04-08T11:23:35;15.30;41.50
17208;DHT22;8720;48.488;9.202;2023-04-08T11:26:03;15.10;41.50
17208;DHT22;8720;48.488;9.202;2023-04-08T11:28:33;15.00;42.10
17208;DHT22;8720;48.488;9.202;2023-04-08T11:31:01;15.00;41.20
17208;DHT22;8720;48.488;9.202;2023-04-08T11:33:30;14.90;41.40
17208;DHT22;8720;48.488;9.202;2023-04-08T11:36:00;14.80;41.40
17208;DHT22;8720;48.488;9.202;2023-04-08T11:38:29;14.80;41.20
17208;DHT22;8720;48.488;9.202;2023-04-08T11:40:57;14.60;41.00
17208;DHT22;8720;48.488;9.202;2023-04-08T11:43:25;14.50;41.20
17208;DHT22;8720;48.488;9.202;2023-04-08T11:45:54;14.50;41.00
17208;DHT22;8720;48.488;9.202;2023-04-08T11:48:22;14.40;40.80
17208;DHT22;8720;48.488;9.202;2023-04-08T11:51:01;14.30;40.90
17208;DHT22;8720;48.488;9.202;2023-04-08T11:53:29;14.20;40.30
17208;DHT22;8720;48.488;9.202;2023-04-08T11:55:57;14.20;40.60
17208;DHT22;8720;48.488;9.202;2023-04-08T11:58:41;14.10;40.50
17208;DHT22;8720;48.488;9.202;2023-04-08T12:01:10;14.10;40.60
17208;DHT22;8720;48.488;9.202;2023-04-08T12:03:37;14.00;40.50
17208;DHT22;8720;48.488;9.202;2023-04-08T12:06:05;14.00;40.50
17208;DHT22;8720;48.488;9.202;2023-04-08T12:08:33;14.00;40.60
17208;DHT22;8720;48.488;9.202;2023-04-08T12:11:01;13.90;40.40
17208;DHT22;8720;48.488;9.202;2023-04-08T12:13:28;13.90;40.50
17208;DHT22;8720;48.488;9.202;2023-04-08T12:15:56;13.90;40.60
17208;DHT22;8720;48.488;9.202;2023-04-08T12:18:24;13.90;41.10
17208;DHT22;8720;48.488;9.202;2023-04-08T12:20:52;13.90;40.30
17208;DHT22;8720;48.488;9.202;2023-04-08T12:23:19;13.80;40.30
17208;DHT22;8720;48.488;9.202;2023-04-08T12:25:46;13.90;40.40
17208;DHT22;8720;48.488;9.202;2023-04-08T12:28:14;13.80;40.40
17208;DHT22;8720;48.488;9.202;2023-04-08T12:30:41;13.80;40.20
17208;DHT22;8720;48.488;9.202;2023-04-08T12:33:08;13.80;40.10
17208;DHT22;8720;48.488;9.202;2023-04-08T12:35:37;13.80;40.00
17208;DHT22;8720;48.488;9.202;2023-04-08T12:38:04;13.90;39.80
17208;DHT22;8720;48.488;9.202;2023-04-08T12:40:32;13.90;40.10
17208;DHT22;8720;48.488;9.202;2023-04-08T12:42:59;13.90;40.00
17208;DHT22;8720;48.488;9.202;2023-04-08T12:45:27;13.90;39.90
17208;DHT22;8720;48.488;9.202;2023-04-08T12:47:54;13.90;39.70
17208;DHT22;8720;48.488;9.202;2023-04-08T12:50:21;13.90;39.60
17208;DHT22;8720;48.488;9.202;2023-04-08T12:52:50;14.00;39.60
17208;DHT22;8720;48.488;9.202;2023-04-08T12:55:17;14.00;39.60
17208;DHT22;8720;48.488;9.202;2023-04-08T12:57:49;14.00;39.60
17208;DHT22;8720;48.488;9.202;2023-04-08T13:00:17;14.00;39.70
17208;DHT22;8720;48.488;9.202;2023-04-08T13:02:44;14.00;39.60
17208;DHT22;8720;48.488;9.202;2023-04-08T13:05:12;14.00;39.60
17208;DHT22;8720;48.488;9.202;2023-04-08T13:07:40;14.00;39.50
17208;DHT22;8720;48.488;9.202;2023-04-08T13:10:09;14.00;39.60
17208;DHT22;8720;48.488;9.202;2023-04-08T13:12:36;14.00;39.50
17208;DHT22;8720;48.488;9.202;2023-04-08T13:15:06;14.00;39.50
17208;DHT22;8720;48.488;9.202;2023-04-08T13:17:34;14.10;39.40
17208;DHT22;8720;48.488;9.202;2023-04-08T13:20:01;14.10;39.50
17208;DHT22;8720;48.488;9.202;2023-04-08T13:22:29;14.10;39.40
17208;DHT22;8720;48.488;9.202;2023-04-08T13:24:58;14.00;39.30
17208;DHT22;8720;48.488;9.202;2023-04-08T13:27:27;14.00;39.40
17208;DHT22;8720;48.488;9.202;2023-04-08T13:29:55;14.00;39.30
17208;DHT22;8720;48.488;9.202;2023-04-08T13:32:22;14.00;39.30
17208;DHT22;8720;48.488;9.202;2023-04-08T13:34:49;14.00;39.30
17208;DHT22;8720;48.488;9.202;2023-04-08T13:37:16;14.00;39.20
17208;DHT22;8720;48.488;9.202;2023-04-08T13:39:44;13.90;38.90
17208;DHT22;8720;48.488;9.202;2023-04-08T13:42:11;13.90;38.80
17208;DHT22;8720;48.488;9.202;2023-04-08T13:44:40;13.90;38.80
17208;DHT22;8720;48.488;9.202;2023-04-08T13:47:07;13.80;38.80
17208;DHT22;8720;48.488;9.202;2023-04-08T13:49:34;13.80;39.00
17208;DHT22;8720;48.488;9.202;2023-04-08T13:52:01;13.70;39.20
17208;DHT22;8720;48.488;9.202;2023-04-08T13:54:29;13.60;39.60
17208;DHT22;8720;48.488;9.202;2023-04-08T13:56:56;13.60;39.90
17208;DHT22;8720;48.488;9.202;2023-04-08T13:59:24;13.50;39.90
17208;DHT22;8720;48.488;9.202;2023-04-08T14:01:52;13.40;40.00
17208;DHT22;8720;48.488;9.202;2023-04-08T14:04:20;13.30;40.10
17208;DHT22;8720;48.488;9.202;2023-04-08T14:06:48;13.30;40.50
17208;DHT22;8720;48.488;9.202;2023-04-08T14:09:18;13.20;40.80
17208;DHT22;8720;48.488;9.202;2023-04-08T14:11:46;13.10;40.90
17208;DHT22;8720;48.488;9.202;2023-04-08T14:14:13;13.10;41.10
17208;DHT22;8720;48.488;9.202;2023-04-08T14:16:40;13.00;41.10
17208;DHT22;8720;48.488;9.202;2023-04-08T14:19:09;12.90;41.30
17208;DHT22;8720;48.488;9.202;2023-04-08T14:21:36;12.90;41.50
17208;DHT22;8720;48.488;9.202;2023-04-08T14:24:04;12.80;41.50
17208;DHT22;8720;48.488;9.202;2023-04-08T14:26:32;12.80;41.70
17208;DHT22;8720;48.488;9.202;2023-04-08T14:29:02;12.80;41.70
17208;DHT22;8720;48.488;9.202;2023-04-08T14:31:29;12.80;41.70
17208;DHT22;8720;48.488;9.202;2023-04-08T14:33:57;12.90;41.70
17208;DHT22;8720;48.488;9.202;2023-04-08T14:36:26;12.90;41.90
17208;DHT22;8720;48.488;9.202;2023-04-08T14:38:54;12.90;41.70
17208;DHT22;8720;48.488;9.202;2023-04-08T14:41:21;12.90;41.50
17208;DHT22;8720;48.488;9.202;2023-04-08T14:43:51;12.90;41.50
17208;DHT22;8720;48.488;9.202;2023-04-08T14:46:18;12.90;41.70
17208;DHT22;8720;48.488;9.202;2023-04-08T14:48:46;13.00;41.80
17208;DHT22;8720;48.488;9.202;2023-04-08T14:51:13;13.00;42.00
17208;DHT22;8720;48.488;9.202;2023-04-08T14:53:42;13.10;42.00
17208;DHT22;8720;48.488;9.202;2023-04-08T14:56:09;13.10;41.80
17208;DHT22;8720;48.488;9.202;2023-04-08T14:58:37;13.10;41.60
17208;DHT22;8720;48.488;9.202;2023-04-08T15:01:04;13.20;41.40
17208;DHT22;8720;48.488;9.202;2023-04-08T15:03:31;13.20;41.30
17208;DHT22;8720;48.488;9.202;2023-04-08T15:05:59;13.20;41.30
17208;DHT22;8720;48.488;9.202;2023-04-08T15:08:26;13.20;41.20
17208;DHT22;8720;48.488;9.202;2023-04-08T15:10:55;13.20;41.30
17208;DHT22;8720;48.488;9.202;2023-04-08T15:13:22;13.30;41.30
17208;DHT22;8720;48.488;9.202;2023-04-08T15:15:50;13.30;41.10
17208;DHT22;8720;48.488;9.202;2023-04-08T15:18:21;13.30;41.00
17208;DHT22;8720;48.488;9.202;2023-04-08T15:20:48;13.30;40.70
17208;DHT22;8720;48.488;9.202;2023-04-08T15:23:16;13.30;40.70
17208;DHT22;8720;48.488;9.202;2023-04-08T15:25:43;13.30;40.70
17208;DHT22;8720;48.488;9.202;2023-04-08T15:28:12;13.30;40.60
17208;DHT22;8720;48.488;9.202;2023-04-08T15:30:39;13.30;40.60
17208;DHT22;8720;48.488;9.202;2023-04-08T15:33:07;13.30;40.50
17208;DHT22;8720;48.488;9.202;2023-04-08T15:35:36;13.30;40.60
17208;DHT22;8720;48.488;9.202;2023-04-08T15:38:04;13.30;40.50
17208;DHT22;8720;48.488;9.202;2023-04-08T15:40:32;13.20;40.40
17208;DHT22;8720;48.488;9.202;2023-04-08T15:42:59;13.20;40.40
17208;DHT22;8720;48.488;9.202;2023-04-08T15:45:29;13.10;40.40
17208;DHT22;8720;48.488;9.202;2023-04-08T15:47:58;13.10;40.50
17208;DHT22;8720;48.488;9.202;2023-04-08T15:50:27;13.00;40.50
17208;DHT22;8720;48.488;9.202;2023-04-08T15:52:56;13.00;40.50
17208;DHT22;8720;48.488;9.202;2023-04-08T15:55:23;12.90;40.40
17208;DHT22;8720;48.488;9.202;2023-04-08T15:57:50;12.90;40.50